Gary, IN (46401)

7:08 AM CDT on March 28, 2017 (GMT -0500)
Eagles Nest Subdivision | | Change Station
Active Advisory: Flood Watch Active Notice: Flood Watch

Elev 182 ft 41.58 °N, 87.24 °W | Updated 28 seconds ago

Overcast
Overcast
38.4 °F
Feels Like 38 °F
N
3.0
Wind Variable Wind from NW

Today
High -- | Low -- °F
--% Chance of Precip.
Yesterday
High -- | Low -- °F
Precip. -- in
Pressure 30.07 in
Visibility 10.0 miles
Clouds Overcast 500 ft
Windchill 38 °F
Dew Point 37 °F
Humidity 95%
Rainfall 0.00 in
Snow Depth Not available.
6:38 AM 7:10 PM
New Moon, 0% visible
METAR KGYY 281145Z 35007KT 10SM OVC005 04/03 A3007
Pressure 30.07 in
Visibility 10.0 miles
Clouds Overcast 500 ft
Windchill 38 °F
Dew Point 37 °F
Humidity 95%
Rainfall 0.00 in
Snow Depth Not available.
6:38 AM 7:10 PM
New Moon, 0% visible
METAR KGYY 281145Z 35007KT 10SM OVC005 04/03 A3007

Get Your Daily Forecast Email!

Thanks for signing up!

Be on the lookout for a verification email in your inbox.

You'll start receiving severe weather alerts in your inbox..

×

10-Day Weather Forecast

Almanac

Astronomy

Mar. 28, 2017 Rise Set
Actual Time
Civil Twilight
Nautical Twilight
Astronomical Twilight
Moon
Length of Visible Light
Length of Day
Tomorrow will be .
, % of the Moon is Illuminated

Today's Extremes

State Highs State Lows

Community

WunderPhotos

Upload Photos

1,962,540 photos uploaded!

WunderBlog® & News

Nearby

Air Quality

  Air Quality AQ Index Pollutant
Not available.

Snow Depth

Station Depth Elevation

Earthquake Activity

City Distance Mag. Time & Date
Minimum magnitude displayed is 2.5.

Earthquake Activity

City Distance Mag. Time & Date
Minimum magnitude displayed is 2.5.

Coastal Water Temperatures

Place Temperature

Stations

Nearby Weather Stations

Station Location Temp. Windchill Dew Point Humidity Wind Precip. Elev Updated Type
                   

Watches & Warnings

Flood Watch
Issued: 5:40 AM CDT Mar. 28, 2017 – National Weather Service

The Flood Watch continues for
the Kankakee River at Shelby
* from Wednesday morning to Saturday morning.
* At 4:45 am Tuesday the stage was 8.6 feet.
* Minor flooding is possible.
* Flood stage is 9.0 feet.
* Forecast... flood stage may be reached by Wednesday morning.
* Impact... at 9.0 feet... lowland agricultural flooding begins.


Lat... Lon 4127 8727 4121 8756 4111 8753 4118 8722